Capitol Logistics 2962


PANC
Ted Stevens Anchorage International Airport
Anchorage, Alaska, US
KCVG
Cincinnati/Northern Kentucky International Airport
Covington, Kentucky, US

Activity Log

Date Flight Route Aircraft Duration
11/13/2019 CPX2962 ANC9 TED YESKA NCA11 YWV J475 VLN 4900N/10000W GFK GEP J36 ODI J30 JOT CEGRM5 B744 5h 37m

Route Details

Aircraft Information
Primary: Boeing 747-400BCF
Backup: Boeing 777-200LRF
Route Data
Distance: 2700nm
Sched. Duration: 5h 46m
Avg. Duration: 5h 37m (-9m)
Times Flown: 1
Recm'd Route: ANC9 TED YESKA NCA11 YWV J475 VLN 4900N/10000W GFK GEP J36 ODI J30 JOT CEGRM5
Planned Altitude: 35,000ft
Origin Wx: PANC 231253Z 36013KT 10SM OVC039 M11/M16 A2996 RMK AO2 SLP148 T11061161 $
Dest. Wx: KCVG 231252Z 19010KT 10SM SCT095 BKN250 00/M08 A3016 RMK AO2 SLP217 T00001078
Notes: OPERATED FOR POLAR AIR CARGO

Financial History
Total Freight: 49,928lbs
Average Load: 49,928lbs/flt
Fuel Used: 142,921lbs
Avg. Fuel Used: 142,921lbs/flt
Fuel Expense: $185,797
Avg. Fuel Expense: $185,797
Avg. Fuel Cost: $1.30/lbs
Total Gross Income: $111,339
Pilot Pay: $239
Total Expenses: $12,077
Total Revenue: $-87,877
Average Revenue: $111,339.44